Terminal Aerodrome Forecast
Issued by NWS

Home | Current Version | Previous Version | Text Only | Print | Product List | Glossary On
Versions: 1 2 3 4 5 6 7 8 9 10 11 12 13
000
FTUS41 KBOX 292336
TAFHYA
TAF
KHYA 292336Z 3000/3024 03007KT P6SM BKN010
     FM300400 35005KT 4SM BR FEW010 SCT150
     FM301100 36006KT P6SM FEW070
     FM302100 13004KT P6SM FEW200=

USA.gov is the U.S. government's official web portal to all federal, state and local government web resources and services.